sensor_id;sensor_type;location;lat;lon;timestamp;P1;durP1;ratioP1;P2;durP2;ratioP2
2720;SDS011;1368;49.484;11.112;2023-05-07T00:01:42;5.90;;;4.10;;
2720;SDS011;1368;49.484;11.112;2023-05-07T00:04:08;4.70;;;3.43;;
2720;SDS011;1368;49.484;11.112;2023-05-07T00:06:34;6.10;;;4.43;;
2720;SDS011;1368;49.484;11.112;2023-05-07T00:08:59;7.10;;;4.40;;
2720;SDS011;1368;49.484;11.112;2023-05-07T00:11:26;3.87;;;3.30;;
2720;SDS011;1368;49.484;11.112;2023-05-07T00:13:52;6.87;;;4.73;;
2720;SDS011;1368;49.484;11.112;2023-05-07T00:16:17;9.93;;;3.50;;
2720;SDS011;1368;49.484;11.112;2023-05-07T00:18:43;6.10;;;3.73;;
2720;SDS011;1368;49.484;11.112;2023-05-07T00:21:08;7.17;;;4.10;;
2720;SDS011;1368;49.484;11.112;2023-05-07T00:23:34;9.60;;;3.80;;
2720;SDS011;1368;49.484;11.112;2023-05-07T00:26:00;8.93;;;3.67;;
2720;SDS011;1368;49.484;11.112;2023-05-07T00:28:25;7.30;;;4.23;;
2720;SDS011;1368;49.484;11.112;2023-05-07T00:30:51;4.30;;;3.40;;
2720;SDS011;1368;49.484;11.112;2023-05-07T00:33:17;7.13;;;4.00;;
2720;SDS011;1368;49.484;11.112;2023-05-07T00:35:43;8.00;;;3.63;;
2720;SDS011;1368;49.484;11.112;2023-05-07T00:38:08;5.40;;;3.63;;
2720;SDS011;1368;49.484;11.112;2023-05-07T00:40:34;4.07;;;3.63;;
2720;SDS011;1368;49.484;11.112;2023-05-07T00:42:59;6.20;;;4.20;;
2720;SDS011;1368;49.484;11.112;2023-05-07T00:45:25;6.50;;;4.37;;
2720;SDS011;1368;49.484;11.112;2023-05-07T00:47:55;4.60;;;3.57;;
2720;SDS011;1368;49.484;11.112;2023-05-07T00:50:23;5.73;;;3.67;;
2720;SDS011;1368;49.484;11.112;2023-05-07T00:52:50;6.73;;;3.70;;
2720;SDS011;1368;49.484;11.112;2023-05-07T00:55:15;5.30;;;4.30;;
2720;SDS011;1368;49.484;11.112;2023-05-07T00:57:41;4.87;;;4.00;;
2720;SDS011;1368;49.484;11.112;2023-05-07T01:00:08;5.73;;;4.20;;
2720;SDS011;1368;49.484;11.112;2023-05-07T01:02:35;5.80;;;5.00;;
2720;SDS011;1368;49.484;11.112;2023-05-07T01:05:00;5.10;;;4.40;;
2720;SDS011;1368;49.484;11.112;2023-05-07T01:07:29;6.67;;;4.90;;
2720;SDS011;1368;49.484;11.112;2023-05-07T01:09:55;6.17;;;4.10;;
2720;SDS011;1368;49.484;11.112;2023-05-07T01:12:21;5.30;;;4.40;;
2720;SDS011;1368;49.484;11.112;2023-05-07T01:14:48;8.30;;;5.37;;
2720;SDS011;1368;49.484;11.112;2023-05-07T01:17:15;6.43;;;4.90;;
2720;SDS011;1368;49.484;11.112;2023-05-07T01:19:41;6.00;;;4.47;;
2720;SDS011;1368;49.484;11.112;2023-05-07T01:22:07;6.67;;;5.10;;
2720;SDS011;1368;49.484;11.112;2023-05-07T01:24:35;5.60;;;4.80;;
2720;SDS011;1368;49.484;11.112;2023-05-07T01:27:02;5.83;;;4.27;;
2720;SDS011;1368;49.484;11.112;2023-05-07T01:29:27;5.53;;;4.70;;
2720;SDS011;1368;49.484;11.112;2023-05-07T01:31:53;7.23;;;5.20;;
2720;SDS011;1368;49.484;11.112;2023-05-07T01:34:21;6.50;;;5.03;;
2720;SDS011;1368;49.484;11.112;2023-05-07T01:36:47;7.53;;;5.40;;
2720;SDS011;1368;49.484;11.112;2023-05-07T01:39:13;6.67;;;5.07;;
2720;SDS011;1368;49.484;11.112;2023-05-07T01:41:40;6.60;;;5.50;;
2720;SDS011;1368;49.484;11.112;2023-05-07T01:44:08;7.30;;;5.40;;
2720;SDS011;1368;49.484;11.112;2023-05-07T01:46:35;8.90;;;5.43;;
2720;SDS011;1368;49.484;11.112;2023-05-07T01:49:00;6.40;;;5.50;;
2720;SDS011;1368;49.484;11.112;2023-05-07T01:51:26;8.63;;;5.30;;
2720;SDS011;1368;49.484;11.112;2023-05-07T01:53:52;6.07;;;5.43;;
2720;SDS011;1368;49.484;11.112;2023-05-07T01:56:18;7.00;;;5.33;;
2720;SDS011;1368;49.484;11.112;2023-05-07T01:58:44;7.07;;;5.30;;
2720;SDS011;1368;49.484;11.112;2023-05-07T02:01:11;7.83;;;5.20;;
2720;SDS011;1368;49.484;11.112;2023-05-07T02:03:38;6.20;;;5.60;;
2720;SDS011;1368;49.484;11.112;2023-05-07T02:06:03;9.73;;;5.70;;
2720;SDS011;1368;49.484;11.112;2023-05-07T02:08:29;8.37;;;6.07;;
2720;SDS011;1368;49.484;11.112;2023-05-07T02:10:55;6.70;;;6.03;;
2720;SDS011;1368;49.484;11.112;2023-05-07T02:13:20;6.87;;;5.60;;
2720;SDS011;1368;49.484;11.112;2023-05-07T02:15:47;6.63;;;5.77;;
2720;SDS011;1368;49.484;11.112;2023-05-07T02:18:15;8.30;;;6.97;;
2720;SDS011;1368;49.484;11.112;2023-05-07T02:20:42;7.80;;;6.70;;
2720;SDS011;1368;49.484;11.112;2023-05-07T02:23:07;8.67;;;6.87;;
2720;SDS011;1368;49.484;11.112;2023-05-07T02:25:33;9.33;;;6.67;;
2720;SDS011;1368;49.484;11.112;2023-05-07T02:27:58;7.57;;;6.77;;
2720;SDS011;1368;49.484;11.112;2023-05-07T02:30:24;8.60;;;7.30;;
2720;SDS011;1368;49.484;11.112;2023-05-07T02:32:50;8.30;;;7.17;;
2720;SDS011;1368;49.484;11.112;2023-05-07T02:35:16;8.23;;;7.33;;
2720;SDS011;1368;49.484;11.112;2023-05-07T02:37:41;9.00;;;7.63;;
2720;SDS011;1368;49.484;11.112;2023-05-07T02:40:07;9.43;;;7.33;;
2720;SDS011;1368;49.484;11.112;2023-05-07T02:42:33;11.60;;;8.60;;
2720;SDS011;1368;49.484;11.112;2023-05-07T02:44:59;9.47;;;8.00;;
2720;SDS011;1368;49.484;11.112;2023-05-07T02:47:24;11.17;;;7.97;;
2720;SDS011;1368;49.484;11.112;2023-05-07T02:49:54;12.30;;;8.60;;
2720;SDS011;1368;49.484;11.112;2023-05-07T02:52:19;9.97;;;7.73;;
2720;SDS011;1368;49.484;11.112;2023-05-07T02:54:45;17.27;;;8.33;;
2720;SDS011;1368;49.484;11.112;2023-05-07T02:57:11;11.50;;;9.40;;
2720;SDS011;1368;49.484;11.112;2023-05-07T02:59:36;10.90;;;9.30;;
2720;SDS011;1368;49.484;11.112;2023-05-07T03:02:02;12.93;;;8.17;;
2720;SDS011;1368;49.484;11.112;2023-05-07T03:04:27;10.10;;;9.10;;
2720;SDS011;1368;49.484;11.112;2023-05-07T03:06:53;10.60;;;9.10;;
2720;SDS011;1368;49.484;11.112;2023-05-07T03:09:18;11.17;;;9.50;;
2720;SDS011;1368;49.484;11.112;2023-05-07T03:11:44;10.07;;;9.07;;
2720;SDS011;1368;49.484;11.112;2023-05-07T03:14:09;10.63;;;9.53;;
2720;SDS011;1368;49.484;11.112;2023-05-07T03:16:35;13.33;;;10.13;;
2720;SDS011;1368;49.484;11.112;2023-05-07T03:19:01;11.17;;;9.23;;
2720;SDS011;1368;49.484;11.112;2023-05-07T03:21:26;10.87;;;9.43;;
2720;SDS011;1368;49.484;11.112;2023-05-07T03:23:52;12.80;;;10.37;;
2720;SDS011;1368;49.484;11.112;2023-05-07T03:26:18;13.63;;;10.07;;
2720;SDS011;1368;49.484;11.112;2023-05-07T03:28:43;11.20;;;9.90;;
2720;SDS011;1368;49.484;11.112;2023-05-07T03:31:09;12.00;;;10.00;;
2720;SDS011;1368;49.484;11.112;2023-05-07T03:33:34;12.27;;;10.30;;
2720;SDS011;1368;49.484;11.112;2023-05-07T03:36:00;12.13;;;9.43;;
2720;SDS011;1368;49.484;11.112;2023-05-07T03:38:26;16.47;;;10.80;;
2720;SDS011;1368;49.484;11.112;2023-05-07T03:40:51;12.67;;;10.40;;
2720;SDS011;1368;49.484;11.112;2023-05-07T03:43:17;11.80;;;10.53;;
2720;SDS011;1368;49.484;11.112;2023-05-07T03:45:43;16.17;;;11.20;;
2720;SDS011;1368;49.484;11.112;2023-05-07T03:48:08;12.70;;;9.90;;
2720;SDS011;1368;49.484;11.112;2023-05-07T03:50:34;11.53;;;10.07;;
2720;SDS011;1368;49.484;11.112;2023-05-07T03:52:59;19.33;;;11.40;;
2720;SDS011;1368;49.484;11.112;2023-05-07T03:55:25;15.10;;;11.10;;
2720;SDS011;1368;49.484;11.112;2023-05-07T03:57:50;18.67;;;12.03;;
2720;SDS011;1368;49.484;11.112;2023-05-07T04:00:16;12.97;;;10.53;;
2720;SDS011;1368;49.484;11.112;2023-05-07T04:02:42;12.70;;;11.13;;
2720;SDS011;1368;49.484;11.112;2023-05-07T04:05:07;17.17;;;12.63;;
2720;SDS011;1368;49.484;11.112;2023-05-07T04:07:33;12.47;;;10.80;;
2720;SDS011;1368;49.484;11.112;2023-05-07T04:09:58;15.80;;;11.10;;
2720;SDS011;1368;49.484;11.112;2023-05-07T04:12:24;14.47;;;11.90;;
2720;SDS011;1368;49.484;11.112;2023-05-07T04:14:49;13.30;;;11.53;;
2720;SDS011;1368;49.484;11.112;2023-05-07T04:17:15;13.53;;;11.67;;
2720;SDS011;1368;49.484;11.112;2023-05-07T04:19:40;14.80;;;11.07;;
2720;SDS011;1368;49.484;11.112;2023-05-07T04:22:10;17.87;;;11.00;;
2720;SDS011;1368;49.484;11.112;2023-05-07T04:24:36;18.53;;;13.17;;
2720;SDS011;1368;49.484;11.112;2023-05-07T04:27:01;14.33;;;12.87;;
2720;SDS011;1368;49.484;11.112;2023-05-07T04:29:27;17.30;;;12.80;;
2720;SDS011;1368;49.484;11.112;2023-05-07T04:31:53;12.13;;;10.90;;
2720;SDS011;1368;49.484;11.112;2023-05-07T04:34:20;12.57;;;11.30;;
2720;SDS011;1368;49.484;11.112;2023-05-07T04:36:46;12.87;;;10.80;;
2720;SDS011;1368;49.484;11.112;2023-05-07T04:39:12;12.90;;;11.47;;
2720;SDS011;1368;49.484;11.112;2023-05-07T04:41:38;14.47;;;11.23;;
2720;SDS011;1368;49.484;11.112;2023-05-07T04:44:04;12.47;;;10.83;;
2720;SDS011;1368;49.484;11.112;2023-05-07T04:46:30;15.07;;;12.20;;
2720;SDS011;1368;49.484;11.112;2023-05-07T04:48:56;18.03;;;13.00;;
2720;SDS011;1368;49.484;11.112;2023-05-07T04:51:21;14.73;;;11.30;;
2720;SDS011;1368;49.484;11.112;2023-05-07T04:53:47;21.33;;;11.80;;
2720;SDS011;1368;49.484;11.112;2023-05-07T04:56:13;13.43;;;11.00;;
2720;SDS011;1368;49.484;11.112;2023-05-07T04:58:39;14.37;;;11.33;;
2720;SDS011;1368;49.484;11.112;2023-05-07T05:01:04;12.00;;;10.70;;
2720;SDS011;1368;49.484;11.112;2023-05-07T05:03:31;13.40;;;10.90;;
2720;SDS011;1368;49.484;11.112;2023-05-07T05:05:56;12.07;;;10.40;;
2720;SDS011;1368;49.484;11.112;2023-05-07T05:08:24;16.90;;;11.00;;
2720;SDS011;1368;49.484;11.112;2023-05-07T05:10:50;12.57;;;11.30;;
2720;SDS011;1368;49.484;11.112;2023-05-07T05:13:15;14.10;;;11.10;;
2720;SDS011;1368;49.484;11.112;2023-05-07T05:15:41;12.23;;;10.50;;
2720;SDS011;1368;49.484;11.112;2023-05-07T05:18:06;14.27;;;11.40;;
2720;SDS011;1368;49.484;11.112;2023-05-07T05:20:32;13.23;;;10.87;;
2720;SDS011;1368;49.484;11.112;2023-05-07T05:22:58;12.10;;;10.50;;
2720;SDS011;1368;49.484;11.112;2023-05-07T05:25:23;14.03;;;10.77;;
2720;SDS011;1368;49.484;11.112;2023-05-07T05:27:49;11.73;;;10.30;;
2720;SDS011;1368;49.484;11.112;2023-05-07T05:30:23;10.93;;;9.13;;
2720;SDS011;1368;49.484;11.112;2023-05-07T05:32:49;12.83;;;10.63;;
2720;SDS011;1368;49.484;11.112;2023-05-07T05:35:14;12.10;;;10.80;;
2720;SDS011;1368;49.484;11.112;2023-05-07T05:37:40;12.70;;;9.70;;
2720;SDS011;1368;49.484;11.112;2023-05-07T05:40:06;12.00;;;9.90;;
2720;SDS011;1368;49.484;11.112;2023-05-07T05:42:32;11.87;;;10.67;;
2720;SDS011;1368;49.484;11.112;2023-05-07T05:44:57;13.03;;;10.73;;
2720;SDS011;1368;49.484;11.112;2023-05-07T05:47:23;13.40;;;11.60;;
2720;SDS011;1368;49.484;11.112;2023-05-07T05:49:48;13.73;;;10.80;;
2720;SDS011;1368;49.484;11.112;2023-05-07T05:52:14;14.83;;;11.77;;
2720;SDS011;1368;49.484;11.112;2023-05-07T05:54:39;13.97;;;11.83;;
2720;SDS011;1368;49.484;11.112;2023-05-07T05:57:05;12.27;;;11.00;;
2720;SDS011;1368;49.484;11.112;2023-05-07T05:59:31;13.13;;;10.70;;
2720;SDS011;1368;49.484;11.112;2023-05-07T06:01:56;13.60;;;10.80;;
2720;SDS011;1368;49.484;11.112;2023-05-07T06:04:22;11.83;;;10.53;;
2720;SDS011;1368;49.484;11.112;2023-05-07T06:06:47;13.80;;;12.30;;
2720;SDS011;1368;49.484;11.112;2023-05-07T06:09:13;12.90;;;11.57;;
2720;SDS011;1368;49.484;11.112;2023-05-07T06:11:38;16.67;;;11.90;;
2720;SDS011;1368;49.484;11.112;2023-05-07T06:14:05;13.70;;;11.30;;
2720;SDS011;1368;49.484;11.112;2023-05-07T06:16:31;13.50;;;11.43;;
2720;SDS011;1368;49.484;11.112;2023-05-07T06:18:57;12.30;;;11.07;;
2720;SDS011;1368;49.484;11.112;2023-05-07T06:21:22;14.33;;;11.43;;
2720;SDS011;1368;49.484;11.112;2023-05-07T06:23:48;12.37;;;11.07;;
2720;SDS011;1368;49.484;11.112;2023-05-07T06:26:13;11.80;;;10.57;;
2720;SDS011;1368;49.484;11.112;2023-05-07T06:28:39;13.10;;;11.10;;
2720;SDS011;1368;49.484;11.112;2023-05-07T06:31:14;13.57;;;11.67;;
2720;SDS011;1368;49.484;11.112;2023-05-07T06:33:41;11.97;;;10.43;;
2720;SDS011;1368;49.484;11.112;2023-05-07T06:36:07;12.80;;;11.43;;
2720;SDS011;1368;49.484;11.112;2023-05-07T06:38:32;16.43;;;11.10;;
2720;SDS011;1368;49.484;11.112;2023-05-07T06:40:58;11.83;;;10.53;;
2720;SDS011;1368;49.484;11.112;2023-05-07T06:43:23;15.40;;;10.27;;
2720;SDS011;1368;49.484;11.112;2023-05-07T06:45:49;12.50;;;10.73;;
2720;SDS011;1368;49.484;11.112;2023-05-07T06:48:15;15.30;;;10.77;;
2720;SDS011;1368;49.484;11.112;2023-05-07T06:50:41;11.90;;;10.47;;
2720;SDS011;1368;49.484;11.112;2023-05-07T06:53:07;11.87;;;10.63;;
2720;SDS011;1368;49.484;11.112;2023-05-07T06:55:32;13.20;;;10.10;;
2720;SDS011;1368;49.484;11.112;2023-05-07T06:57:58;12.30;;;9.60;;
2720;SDS011;1368;49.484;11.112;2023-05-07T07:00:26;11.80;;;10.60;;
2720;SDS011;1368;49.484;11.112;2023-05-07T07:02:52;12.13;;;10.63;;
2720;SDS011;1368;49.484;11.112;2023-05-07T07:05:18;11.60;;;9.60;;
2720;SDS011;1368;49.484;11.112;2023-05-07T07:07:44;14.67;;;9.93;;
2720;SDS011;1368;49.484;11.112;2023-05-07T07:10:17;10.00;;;8.50;;
2720;SDS011;1368;49.484;11.112;2023-05-07T07:12:46;10.23;;;9.20;;
2720;SDS011;1368;49.484;11.112;2023-05-07T07:15:13;10.73;;;8.50;;
2720;SDS011;1368;49.484;11.112;2023-05-07T07:17:39;9.27;;;8.33;;
2720;SDS011;1368;49.484;11.112;2023-05-07T07:20:04;9.40;;;8.20;;
2720;SDS011;1368;49.484;11.112;2023-05-07T07:22:30;10.20;;;9.10;;
2720;SDS011;1368;49.484;11.112;2023-05-07T07:24:56;9.87;;;8.00;;
2720;SDS011;1368;49.484;11.112;2023-05-07T07:27:21;8.93;;;7.90;;
2720;SDS011;1368;49.484;11.112;2023-05-07T07:29:47;9.43;;;8.53;;
2720;SDS011;1368;49.484;11.112;2023-05-07T07:32:13;10.70;;;8.23;;
2720;SDS011;1368;49.484;11.112;2023-05-07T07:34:38;9.40;;;8.33;;
2720;SDS011;1368;49.484;11.112;2023-05-07T07:37:04;9.77;;;8.47;;
2720;SDS011;1368;49.484;11.112;2023-05-07T07:39:33;10.80;;;8.60;;
2720;SDS011;1368;49.484;11.112;2023-05-07T07:41:59;9.87;;;8.53;;
2720;SDS011;1368;49.484;11.112;2023-05-07T07:44:25;8.73;;;7.87;;
2720;SDS011;1368;49.484;11.112;2023-05-07T07:46:52;11.43;;;8.43;;
2720;SDS011;1368;49.484;11.112;2023-05-07T07:49:17;9.30;;;8.23;;
2720;SDS011;1368;49.484;11.112;2023-05-07T07:51:43;9.33;;;8.33;;
2720;SDS011;1368;49.484;11.112;2023-05-07T07:54:08;11.63;;;8.83;;
2720;SDS011;1368;49.484;11.112;2023-05-07T07:56:34;9.70;;;8.70;;
2720;SDS011;1368;49.484;11.112;2023-05-07T07:59:00;11.43;;;8.43;;
2720;SDS011;1368;49.484;11.112;2023-05-07T08:01:26;10.47;;;8.10;;
2720;SDS011;1368;49.484;11.112;2023-05-07T08:03:51;10.17;;;9.17;;
2720;SDS011;1368;49.484;11.112;2023-05-07T08:06:17;10.00;;;9.00;;
2720;SDS011;1368;49.484;11.112;2023-05-07T08:08:43;10.73;;;9.10;;
2720;SDS011;1368;49.484;11.112;2023-05-07T08:11:09;8.03;;;7.23;;
2720;SDS011;1368;49.484;11.112;2023-05-07T08:13:35;9.60;;;8.60;;
2720;SDS011;1368;49.484;11.112;2023-05-07T08:16:01;11.17;;;8.67;;
2720;SDS011;1368;49.484;11.112;2023-05-07T08:18:27;10.97;;;9.10;;
2720;SDS011;1368;49.484;11.112;2023-05-07T08:20:53;10.90;;;9.70;;
2720;SDS011;1368;49.484;11.112;2023-05-07T08:23:19;9.90;;;8.80;;
2720;SDS011;1368;49.484;11.112;2023-05-07T08:25:45;10.20;;;8.80;;
2720;SDS011;1368;49.484;11.112;2023-05-07T08:28:11;10.43;;;8.07;;
2720;SDS011;1368;49.484;11.112;2023-05-07T08:30:36;9.73;;;8.77;;
2720;SDS011;1368;49.484;11.112;2023-05-07T08:33:02;9.07;;;8.17;;
2720;SDS011;1368;49.484;11.112;2023-05-07T08:35:28;10.43;;;9.33;;
2720;SDS011;1368;49.484;11.112;2023-05-07T08:37:53;10.00;;;8.73;;
2720;SDS011;1368;49.484;11.112;2023-05-07T08:40:20;11.10;;;9.10;;
2720;SDS011;1368;49.484;11.112;2023-05-07T08:42:49;9.30;;;8.20;;
2720;SDS011;1368;49.484;11.112;2023-05-07T08:45:21;8.70;;;7.80;;
2720;SDS011;1368;49.484;11.112;2023-05-07T08:47:50;9.60;;;8.17;;
2720;SDS011;1368;49.484;11.112;2023-05-07T08:50:20;9.17;;;8.23;;
2720;SDS011;1368;49.484;11.112;2023-05-07T08:52:46;10.10;;;7.67;;
2720;SDS011;1368;49.484;11.112;2023-05-07T08:55:12;8.57;;;7.70;;
2720;SDS011;1368;49.484;11.112;2023-05-07T08:57:38;8.90;;;8.10;;
2720;SDS011;1368;49.484;11.112;2023-05-07T09:00:04;9.13;;;8.23;;
2720;SDS011;1368;49.484;11.112;2023-05-07T09:02:32;9.73;;;7.60;;
2720;SDS011;1368;49.484;11.112;2023-05-07T09:04:58;7.70;;;6.93;;
2720;SDS011;1368;49.484;11.112;2023-05-07T09:07:24;10.93;;;7.40;;
2720;SDS011;1368;49.484;11.112;2023-05-07T09:09:50;8.60;;;7.50;;
2720;SDS011;1368;49.484;11.112;2023-05-07T09:12:17;9.33;;;7.43;;
2720;SDS011;1368;49.484;11.112;2023-05-07T09:14:43;9.93;;;8.93;;
2720;SDS011;1368;49.484;11.112;2023-05-07T09:17:09;11.83;;;8.80;;
2720;SDS011;1368;49.484;11.112;2023-05-07T09:19:35;10.13;;;8.33;;
2720;SDS011;1368;49.484;11.112;2023-05-07T09:24:30;8.40;;;7.47;;
2720;SDS011;1368;49.484;11.112;2023-05-07T09:27:00;8.73;;;7.63;;
2720;SDS011;1368;49.484;11.112;2023-05-07T09:29:27;8.00;;;7.17;;
2720;SDS011;1368;49.484;11.112;2023-05-07T09:32:00;9.17;;;7.73;;
2720;SDS011;1368;49.484;11.112;2023-05-07T09:34:28;9.50;;;8.50;;
2720;SDS011;1368;49.484;11.112;2023-05-07T09:36:54;8.37;;;7.20;;
2720;SDS011;1368;49.484;11.112;2023-05-07T09:39:21;7.80;;;7.00;;
2720;SDS011;1368;49.484;11.112;2023-05-07T09:41:48;7.90;;;6.37;;
2720;SDS011;1368;49.484;11.112;2023-05-07T09:44:15;7.90;;;7.10;;
2720;SDS011;1368;49.484;11.112;2023-05-07T09:46:44;8.10;;;7.00;;
2720;SDS011;1368;49.484;11.112;2023-05-07T09:49:12;7.90;;;7.03;;
2720;SDS011;1368;49.484;11.112;2023-05-07T09:51:45;7.43;;;6.60;;
2720;SDS011;1368;49.484;11.112;2023-05-07T09:54:14;10.27;;;8.07;;
2720;SDS011;1368;49.484;11.112;2023-05-07T09:56:40;7.50;;;6.80;;
2720;SDS011;1368;49.484;11.112;2023-05-07T09:59:08;9.73;;;7.07;;
2720;SDS011;1368;49.484;11.112;2023-05-07T10:01:37;7.93;;;7.13;;
2720;SDS011;1368;49.484;11.112;2023-05-07T10:04:05;7.90;;;6.80;;
2720;SDS011;1368;49.484;11.112;2023-05-07T10:06:33;7.97;;;6.50;;
2720;SDS011;1368;49.484;11.112;2023-05-07T10:08:59;7.00;;;6.27;;
2720;SDS011;1368;49.484;11.112;2023-05-07T10:11:25;6.90;;;6.20;;
2720;SDS011;1368;49.484;11.112;2023-05-07T10:13:52;8.60;;;5.90;;
2720;SDS011;1368;49.484;11.112;2023-05-07T10:16:17;7.17;;;6.47;;
2720;SDS011;1368;49.484;11.112;2023-05-07T10:18:43;8.03;;;6.93;;
2720;SDS011;1368;49.484;11.112;2023-05-07T10:21:16;9.00;;;5.90;;
2720;SDS011;1368;49.484;11.112;2023-05-07T10:23:50;8.00;;;6.70;;
2720;SDS011;1368;49.484;11.112;2023-05-07T10:26:22;9.37;;;7.33;;
2720;SDS011;1368;49.484;11.112;2023-05-07T10:28:51;8.83;;;6.53;;
2720;SDS011;1368;49.484;11.112;2023-05-07T10:34:07;7.40;;;6.33;;
2720;SDS011;1368;49.484;11.112;2023-05-07T10:36:40;6.67;;;6.00;;
2720;SDS011;1368;49.484;11.112;2023-05-07T10:39:07;6.40;;;5.57;;
2720;SDS011;1368;49.484;11.112;2023-05-07T10:41:33;6.70;;;6.00;;
2720;SDS011;1368;49.484;11.112;2023-05-07T10:43:58;7.13;;;6.30;;
2720;SDS011;1368;49.484;11.112;2023-05-07T10:46:27;7.40;;;5.73;;
2720;SDS011;1368;49.484;11.112;2023-05-07T10:51:33;6.30;;;5.70;;
2720;SDS011;1368;49.484;11.112;2023-05-07T10:56:34;7.73;;;5.80;;
2720;SDS011;1368;49.484;11.112;2023-05-07T11:02:02;9.00;;;5.83;;
2720;SDS011;1368;49.484;11.112;2023-05-07T11:04:29;9.27;;;6.80;;
2720;SDS011;1368;49.484;11.112;2023-05-07T11:17:34;7.60;;;5.70;;
2720;SDS011;1368;49.484;11.112;2023-05-07T11:20:16;15.10;;;5.90;;
2720;SDS011;1368;49.484;11.112;2023-05-07T11:22:42;6.40;;;5.70;;
2720;SDS011;1368;49.484;11.112;2023-05-07T11:25:07;7.10;;;5.93;;
2720;SDS011;1368;49.484;11.112;2023-05-07T11:27:33;6.70;;;5.77;;
2720;SDS011;1368;49.484;11.112;2023-05-07T11:29:59;6.57;;;4.90;;
2720;SDS011;1368;49.484;11.112;2023-05-07T11:32:28;6.47;;;5.77;;
2720;SDS011;1368;49.484;11.112;2023-05-07T11:34:56;12.93;;;6.20;;
2720;SDS011;1368;49.484;11.112;2023-05-07T11:37:24;7.70;;;5.47;;
2720;SDS011;1368;49.484;11.112;2023-05-07T11:40:01;10.17;;;7.10;;
2720;SDS011;1368;49.484;11.112;2023-05-07T11:42:32;6.53;;;5.77;;
2720;SDS011;1368;49.484;11.112;2023-05-07T11:44:59;7.30;;;5.60;;
2720;SDS011;1368;49.484;11.112;2023-05-07T11:47:25;8.13;;;5.77;;
2720;SDS011;1368;49.484;11.112;2023-05-07T11:49:51;7.50;;;4.97;;
2720;SDS011;1368;49.484;11.112;2023-05-07T11:52:18;5.30;;;4.37;;
2720;SDS011;1368;49.484;11.112;2023-05-07T11:54:49;6.90;;;5.60;;
2720;SDS011;1368;49.484;11.112;2023-05-07T11:57:19;6.73;;;5.00;;
2720;SDS011;1368;49.484;11.112;2023-05-07T11:59:45;5.53;;;4.90;;
2720;SDS011;1368;49.484;11.112;2023-05-07T12:02:14;8.60;;;4.80;;
2720;SDS011;1368;49.484;11.112;2023-05-07T12:04:40;7.50;;;6.00;;
2720;SDS011;1368;49.484;11.112;2023-05-07T12:07:15;6.70;;;5.63;;
2720;SDS011;1368;49.484;11.112;2023-05-07T12:09:42;7.03;;;6.30;;
2720;SDS011;1368;49.484;11.112;2023-05-07T12:12:07;7.33;;;6.10;;
2720;SDS011;1368;49.484;11.112;2023-05-07T12:14:40;7.30;;;5.63;;
2720;SDS011;1368;49.484;11.112;2023-05-07T12:17:07;6.37;;;5.10;;
2720;SDS011;1368;49.484;11.112;2023-05-07T12:19:34;6.00;;;5.40;;
2720;SDS011;1368;49.484;11.112;2023-05-07T12:22:02;7.97;;;6.20;;
2720;SDS011;1368;49.484;11.112;2023-05-07T12:24:28;6.00;;;5.37;;
2720;SDS011;1368;49.484;11.112;2023-05-07T12:26:54;7.23;;;6.13;;
2720;SDS011;1368;49.484;11.112;2023-05-07T12:29:23;7.70;;;5.77;;
2720;SDS011;1368;49.484;11.112;2023-05-07T12:31:49;7.00;;;5.97;;
2720;SDS011;1368;49.484;11.112;2023-05-07T12:34:15;8.23;;;5.50;;
2720;SDS011;1368;49.484;11.112;2023-05-07T12:36:41;6.07;;;5.37;;
2720;SDS011;1368;49.484;11.112;2023-05-07T12:39:07;7.33;;;5.50;;
2720;SDS011;1368;49.484;11.112;2023-05-07T12:41:51;6.60;;;5.43;;
2720;SDS011;1368;49.484;11.112;2023-05-07T12:44:23;9.67;;;5.10;;
2720;SDS011;1368;49.484;11.112;2023-05-07T12:46:50;6.50;;;5.07;;
2720;SDS011;1368;49.484;11.112;2023-05-07T12:49:16;6.60;;;4.53;;
2720;SDS011;1368;49.484;11.112;2023-05-07T12:51:46;5.97;;;5.10;;
2720;SDS011;1368;49.484;11.112;2023-05-07T12:54:13;10.03;;;5.43;;
2720;SDS011;1368;49.484;11.112;2023-05-07T12:56:39;6.00;;;5.00;;
2720;SDS011;1368;49.484;11.112;2023-05-07T12:59:05;5.20;;;4.57;;
2720;SDS011;1368;49.484;11.112;2023-05-07T13:01:30;7.70;;;4.77;;
2720;SDS011;1368;49.484;11.112;2023-05-07T13:04:02;6.63;;;5.47;;
2720;SDS011;1368;49.484;11.112;2023-05-07T13:06:29;8.40;;;5.40;;
2720;SDS011;1368;49.484;11.112;2023-05-07T13:08:56;8.03;;;6.13;;
2720;SDS011;1368;49.484;11.112;2023-05-07T13:11:21;8.73;;;5.60;;
2720;SDS011;1368;49.484;11.112;2023-05-07T13:13:47;7.63;;;5.20;;
2720;SDS011;1368;49.484;11.112;2023-05-07T13:16:13;8.83;;;4.77;;
2720;SDS011;1368;49.484;11.112;2023-05-07T13:18:39;7.53;;;4.93;;
2720;SDS011;1368;49.484;11.112;2023-05-07T13:21:05;6.03;;;4.77;;
2720;SDS011;1368;49.484;11.112;2023-05-07T13:23:31;5.80;;;4.80;;
2720;SDS011;1368;49.484;11.112;2023-05-07T13:25:56;6.17;;;5.20;;
2720;SDS011;1368;49.484;11.112;2023-05-07T13:28:22;5.70;;;4.00;;
2720;SDS011;1368;49.484;11.112;2023-05-07T13:30:48;8.33;;;5.10;;
2720;SDS011;1368;49.484;11.112;2023-05-07T13:33:16;6.53;;;4.50;;
2720;SDS011;1368;49.484;11.112;2023-05-07T13:35:42;9.10;;;5.17;;
2720;SDS011;1368;49.484;11.112;2023-05-07T13:38:08;7.53;;;5.67;;
2720;SDS011;1368;49.484;11.112;2023-05-07T13:40:33;5.80;;;5.10;;
2720;SDS011;1368;49.484;11.112;2023-05-07T13:42:59;5.37;;;4.87;;
2720;SDS011;1368;49.484;11.112;2023-05-07T13:45:27;6.30;;;5.37;;
2720;SDS011;1368;49.484;11.112;2023-05-07T13:47:54;7.07;;;4.80;;
2720;SDS011;1368;49.484;11.112;2023-05-07T13:50:20;5.50;;;4.20;;
2720;SDS011;1368;49.484;11.112;2023-05-07T13:52:46;6.30;;;5.00;;
2720;SDS011;1368;49.484;11.112;2023-05-07T13:55:18;7.90;;;4.93;;
2720;SDS011;1368;49.484;11.112;2023-05-07T13:57:45;6.30;;;5.10;;
2720;SDS011;1368;49.484;11.112;2023-05-07T14:00:11;8.40;;;4.70;;
2720;SDS011;1368;49.484;11.112;2023-05-07T14:02:37;6.87;;;4.80;;
2720;SDS011;1368;49.484;11.112;2023-05-07T14:05:03;6.57;;;5.60;;
2720;SDS011;1368;49.484;11.112;2023-05-07T14:07:28;6.13;;;4.87;;
2720;SDS011;1368;49.484;11.112;2023-05-07T14:09:54;5.70;;;4.43;;
2720;SDS011;1368;49.484;11.112;2023-05-07T14:12:20;5.20;;;4.70;;
2720;SDS011;1368;49.484;11.112;2023-05-07T14:14:46;6.70;;;5.33;;
2720;SDS011;1368;49.484;11.112;2023-05-07T14:17:12;7.90;;;5.40;;
2720;SDS011;1368;49.484;11.112;2023-05-07T14:19:37;6.50;;;5.17;;
2720;SDS011;1368;49.484;11.112;2023-05-07T14:22:03;7.80;;;4.97;;
2720;SDS011;1368;49.484;11.112;2023-05-07T14:24:28;8.13;;;4.90;;
2720;SDS011;1368;49.484;11.112;2023-05-07T14:26:54;7.07;;;5.60;;
2720;SDS011;1368;49.484;11.112;2023-05-07T14:29:19;6.70;;;5.07;;
2720;SDS011;1368;49.484;11.112;2023-05-07T14:31:45;6.83;;;5.20;;
2720;SDS011;1368;49.484;11.112;2023-05-07T14:34:11;5.97;;;5.17;;
2720;SDS011;1368;49.484;11.112;2023-05-07T14:36:36;6.50;;;5.50;;
2720;SDS011;1368;49.484;11.112;2023-05-07T14:39:02;7.07;;;6.00;;
2720;SDS011;1368;49.484;11.112;2023-05-07T14:41:28;8.20;;;5.80;;
2720;SDS011;1368;49.484;11.112;2023-05-07T14:43:54;5.87;;;4.70;;
2720;SDS011;1368;49.484;11.112;2023-05-07T14:46:20;6.53;;;5.73;;
2720;SDS011;1368;49.484;11.112;2023-05-07T14:48:45;7.13;;;5.70;;
2720;SDS011;1368;49.484;11.112;2023-05-07T14:51:11;6.80;;;6.00;;
2720;SDS011;1368;49.484;11.112;2023-05-07T14:53:38;7.20;;;5.63;;
2720;SDS011;1368;49.484;11.112;2023-05-07T14:56:04;5.90;;;5.30;;
2720;SDS011;1368;49.484;11.112;2023-05-07T14:58:30;6.90;;;5.97;;
2720;SDS011;1368;49.484;11.112;2023-05-07T15:00:56;6.60;;;5.70;;
2720;SDS011;1368;49.484;11.112;2023-05-07T15:03:22;6.47;;;5.47;;
2720;SDS011;1368;49.484;11.112;2023-05-07T15:05:48;8.17;;;5.50;;
2720;SDS011;1368;49.484;11.112;2023-05-07T15:08:16;8.23;;;5.97;;
2720;SDS011;1368;49.484;11.112;2023-05-07T15:10:42;6.70;;;5.33;;
2720;SDS011;1368;49.484;11.112;2023-05-07T15:13:08;6.80;;;5.60;;